sensor_id;sensor_type;location;lat;lon;timestamp;P1;durP1;ratioP1;P2;durP2;ratioP2
77880;SDS011;67077;50.298;18.996;2023-12-14T00:00:59;72.10;;;30.50;;
77880;SDS011;67077;50.298;18.996;2023-12-14T00:03:36;64.00;;;28.80;;
77880;SDS011;67077;50.298;18.996;2023-12-14T00:06:04;66.90;;;29.00;;
77880;SDS011;67077;50.298;18.996;2023-12-14T00:08:32;69.10;;;29.90;;
77880;SDS011;67077;50.298;18.996;2023-12-14T00:11:06;68.50;;;30.40;;
77880;SDS011;67077;50.298;18.996;2023-12-14T00:13:35;70.80;;;30.20;;
77880;SDS011;67077;50.298;18.996;2023-12-14T00:16:03;76.40;;;32.60;;
77880;SDS011;67077;50.298;18.996;2023-12-14T00:18:31;78.90;;;33.50;;
77880;SDS011;67077;50.298;18.996;2023-12-14T00:20:59;63.60;;;29.40;;
77880;SDS011;67077;50.298;18.996;2023-12-14T00:23:27;69.50;;;32.30;;
77880;SDS011;67077;50.298;18.996;2023-12-14T00:25:55;67.10;;;30.20;;
77880;SDS011;67077;50.298;18.996;2023-12-14T00:28:23;64.60;;;30.40;;
77880;SDS011;67077;50.298;18.996;2023-12-14T00:30:51;65.70;;;31.00;;
77880;SDS011;67077;50.298;18.996;2023-12-14T00:33:19;66.30;;;31.10;;
77880;SDS011;67077;50.298;18.996;2023-12-14T00:35:47;67.00;;;31.10;;
77880;SDS011;67077;50.298;18.996;2023-12-14T00:38:15;64.10;;;30.90;;
77880;SDS011;67077;50.298;18.996;2023-12-14T00:40:42;64.30;;;30.20;;
77880;SDS011;67077;50.298;18.996;2023-12-14T00:43:10;67.20;;;31.40;;
77880;SDS011;67077;50.298;18.996;2023-12-14T00:45:38;64.70;;;31.50;;
77880;SDS011;67077;50.298;18.996;2023-12-14T00:48:08;69.50;;;32.90;;
77880;SDS011;67077;50.298;18.996;2023-12-14T00:50:36;67.60;;;31.60;;
77880;SDS011;67077;50.298;18.996;2023-12-14T00:53:03;68.10;;;30.50;;
77880;SDS011;67077;50.298;18.996;2023-12-14T00:55:31;64.50;;;30.70;;
77880;SDS011;67077;50.298;18.996;2023-12-14T00:57:59;69.30;;;32.50;;
77880;SDS011;67077;50.298;18.996;2023-12-14T01:00:27;68.20;;;31.80;;
77880;SDS011;67077;50.298;18.996;2023-12-14T01:02:55;66.90;;;31.60;;
77880;SDS011;67077;50.298;18.996;2023-12-14T01:05:23;67.50;;;31.70;;
77880;SDS011;67077;50.298;18.996;2023-12-14T01:07:51;66.50;;;31.80;;
77880;SDS011;67077;50.298;18.996;2023-12-14T01:10:18;65.10;;;31.40;;
77880;SDS011;67077;50.298;18.996;2023-12-14T01:12:46;67.20;;;32.40;;
77880;SDS011;67077;50.298;18.996;2023-12-14T01:15:14;71.40;;;32.30;;
77880;SDS011;67077;50.298;18.996;2023-12-14T01:17:42;69.30;;;32.30;;
77880;SDS011;67077;50.298;18.996;2023-12-14T01:20:10;67.40;;;31.80;;
77880;SDS011;67077;50.298;18.996;2023-12-14T01:22:38;76.80;;;34.40;;
77880;SDS011;67077;50.298;18.996;2023-12-14T01:25:06;75.20;;;34.90;;
77880;SDS011;67077;50.298;18.996;2023-12-14T01:27:34;75.20;;;34.40;;
77880;SDS011;67077;50.298;18.996;2023-12-14T01:30:01;84.60;;;35.40;;
77880;SDS011;67077;50.298;18.996;2023-12-14T01:32:29;75.40;;;33.00;;
77880;SDS011;67077;50.298;18.996;2023-12-14T01:34:57;79.90;;;33.40;;
77880;SDS011;67077;50.298;18.996;2023-12-14T01:37:25;82.60;;;33.80;;
77880;SDS011;67077;50.298;18.996;2023-12-14T01:39:53;76.50;;;33.00;;
77880;SDS011;67077;50.298;18.996;2023-12-14T01:42:21;73.50;;;32.00;;
77880;SDS011;67077;50.298;18.996;2023-12-14T01:44:49;76.00;;;33.00;;
77880;SDS011;67077;50.298;18.996;2023-12-14T01:47:16;80.50;;;33.10;;
77880;SDS011;67077;50.298;18.996;2023-12-14T01:49:45;84.60;;;33.80;;
77880;SDS011;67077;50.298;18.996;2023-12-14T01:52:12;79.60;;;34.30;;
77880;SDS011;67077;50.298;18.996;2023-12-14T01:54:42;74.10;;;33.30;;
77880;SDS011;67077;50.298;18.996;2023-12-14T01:57:10;70.90;;;32.60;;
77880;SDS011;67077;50.298;18.996;2023-12-14T01:59:38;72.10;;;31.50;;
77880;SDS011;67077;50.298;18.996;2023-12-14T02:02:06;68.40;;;30.20;;
77880;SDS011;67077;50.298;18.996;2023-12-14T02:04:34;74.80;;;31.80;;
77880;SDS011;67077;50.298;18.996;2023-12-14T02:07:02;66.80;;;28.70;;
77880;SDS011;67077;50.298;18.996;2023-12-14T02:09:30;60.80;;;27.90;;
77880;SDS011;67077;50.298;18.996;2023-12-14T02:11:57;61.50;;;27.40;;
77880;SDS011;67077;50.298;18.996;2023-12-14T02:14:25;68.60;;;30.10;;
77880;SDS011;67077;50.298;18.996;2023-12-14T02:16:54;70.20;;;30.00;;
77880;SDS011;67077;50.298;18.996;2023-12-14T02:19:22;74.90;;;31.70;;
77880;SDS011;67077;50.298;18.996;2023-12-14T02:21:49;72.30;;;30.80;;
77880;SDS011;67077;50.298;18.996;2023-12-14T02:24:17;72.30;;;31.70;;
77880;SDS011;67077;50.298;18.996;2023-12-14T02:26:45;63.80;;;28.20;;
77880;SDS011;67077;50.298;18.996;2023-12-14T02:29:13;65.10;;;28.90;;
77880;SDS011;67077;50.298;18.996;2023-12-14T02:31:41;68.50;;;30.30;;
77880;SDS011;67077;50.298;18.996;2023-12-14T02:34:08;65.00;;;29.00;;
77880;SDS011;67077;50.298;18.996;2023-12-14T02:36:36;67.90;;;29.10;;
77880;SDS011;67077;50.298;18.996;2023-12-14T02:39:04;61.50;;;28.00;;
77880;SDS011;67077;50.298;18.996;2023-12-14T02:41:32;56.80;;;26.40;;
77880;SDS011;67077;50.298;18.996;2023-12-14T02:44:00;59.70;;;28.00;;
77880;SDS011;67077;50.298;18.996;2023-12-14T02:46:28;66.00;;;27.40;;
77880;SDS011;67077;50.298;18.996;2023-12-14T02:48:56;58.80;;;26.60;;
77880;SDS011;67077;50.298;18.996;2023-12-14T02:51:24;60.00;;;27.60;;
77880;SDS011;67077;50.298;18.996;2023-12-14T02:53:51;64.90;;;29.70;;
77880;SDS011;67077;50.298;18.996;2023-12-14T02:56:19;70.90;;;30.30;;
77880;SDS011;67077;50.298;18.996;2023-12-14T02:58:47;71.80;;;28.90;;
77880;SDS011;67077;50.298;18.996;2023-12-14T03:01:19;73.30;;;27.90;;
77880;SDS011;67077;50.298;18.996;2023-12-14T03:03:48;79.60;;;28.70;;
77880;SDS011;67077;50.298;18.996;2023-12-14T03:06:16;76.10;;;28.80;;
77880;SDS011;67077;50.298;18.996;2023-12-14T03:08:44;76.30;;;28.80;;
77880;SDS011;67077;50.298;18.996;2023-12-14T03:11:20;83.80;;;30.30;;
77880;SDS011;67077;50.298;18.996;2023-12-14T03:13:49;82.40;;;30.50;;
77880;SDS011;67077;50.298;18.996;2023-12-14T03:16:18;84.00;;;31.20;;
77880;SDS011;67077;50.298;18.996;2023-12-14T03:18:46;77.70;;;31.30;;
77880;SDS011;67077;50.298;18.996;2023-12-14T03:21:15;82.70;;;31.20;;
77880;SDS011;67077;50.298;18.996;2023-12-14T03:23:42;76.70;;;29.70;;
77880;SDS011;67077;50.298;18.996;2023-12-14T03:26:10;78.40;;;29.80;;
77880;SDS011;67077;50.298;18.996;2023-12-14T03:28:39;73.90;;;29.70;;
77880;SDS011;67077;50.298;18.996;2023-12-14T03:31:06;74.50;;;29.90;;
77880;SDS011;67077;50.298;18.996;2023-12-14T03:33:34;69.40;;;29.20;;
77880;SDS011;67077;50.298;18.996;2023-12-14T03:36:02;75.70;;;30.00;;
77880;SDS011;67077;50.298;18.996;2023-12-14T03:38:31;77.10;;;29.20;;
77880;SDS011;67077;50.298;18.996;2023-12-14T03:40:59;72.50;;;28.80;;
77880;SDS011;67077;50.298;18.996;2023-12-14T03:43:28;73.10;;;29.00;;
77880;SDS011;67077;50.298;18.996;2023-12-14T03:45:56;65.00;;;27.80;;
77880;SDS011;67077;50.298;18.996;2023-12-14T03:48:23;71.40;;;28.40;;
77880;SDS011;67077;50.298;18.996;2023-12-14T03:50:51;67.40;;;27.70;;
77880;SDS011;67077;50.298;18.996;2023-12-14T03:53:19;69.80;;;27.60;;
77880;SDS011;67077;50.298;18.996;2023-12-14T03:55:47;67.50;;;26.10;;
77880;SDS011;67077;50.298;18.996;2023-12-14T03:58:14;61.10;;;26.00;;
77880;SDS011;67077;50.298;18.996;2023-12-14T04:00:42;63.10;;;27.40;;
77880;SDS011;67077;50.298;18.996;2023-12-14T04:03:10;63.00;;;26.30;;
77880;SDS011;67077;50.298;18.996;2023-12-14T04:05:38;66.50;;;27.40;;
77880;SDS011;67077;50.298;18.996;2023-12-14T04:08:07;71.20;;;26.80;;
77880;SDS011;67077;50.298;18.996;2023-12-14T04:10:34;65.70;;;27.30;;
77880;SDS011;67077;50.298;18.996;2023-12-14T04:13:02;71.10;;;29.00;;
77880;SDS011;67077;50.298;18.996;2023-12-14T04:15:30;70.80;;;26.90;;
77880;SDS011;67077;50.298;18.996;2023-12-14T04:17:58;78.10;;;26.60;;
77880;SDS011;67077;50.298;18.996;2023-12-14T04:20:26;84.30;;;26.20;;
77880;SDS011;67077;50.298;18.996;2023-12-14T04:22:54;79.70;;;25.20;;
77880;SDS011;67077;50.298;18.996;2023-12-14T04:25:22;66.70;;;25.30;;
77880;SDS011;67077;50.298;18.996;2023-12-14T04:27:50;69.50;;;26.80;;
77880;SDS011;67077;50.298;18.996;2023-12-14T04:30:18;63.10;;;25.40;;
77880;SDS011;67077;50.298;18.996;2023-12-14T04:32:46;63.80;;;24.30;;
77880;SDS011;67077;50.298;18.996;2023-12-14T04:35:15;60.00;;;23.60;;
77880;SDS011;67077;50.298;18.996;2023-12-14T04:37:42;62.40;;;22.80;;
77880;SDS011;67077;50.298;18.996;2023-12-14T04:40:10;65.30;;;24.10;;
77880;SDS011;67077;50.298;18.996;2023-12-14T04:42:39;62.50;;;24.40;;
77880;SDS011;67077;50.298;18.996;2023-12-14T04:45:07;55.80;;;24.40;;
77880;SDS011;67077;50.298;18.996;2023-12-14T04:47:36;56.30;;;23.70;;
77880;SDS011;67077;50.298;18.996;2023-12-14T04:50:04;59.00;;;23.40;;
77880;SDS011;67077;50.298;18.996;2023-12-14T04:52:32;62.50;;;23.60;;
77880;SDS011;67077;50.298;18.996;2023-12-14T04:55:00;68.60;;;23.40;;
77880;SDS011;67077;50.298;18.996;2023-12-14T04:57:28;59.80;;;23.70;;
77880;SDS011;67077;50.298;18.996;2023-12-14T04:59:56;56.70;;;23.30;;
77880;SDS011;67077;50.298;18.996;2023-12-14T05:02:24;57.00;;;23.20;;
77880;SDS011;67077;50.298;18.996;2023-12-14T05:04:51;57.30;;;24.10;;
77880;SDS011;67077;50.298;18.996;2023-12-14T05:07:19;59.00;;;23.90;;
77880;SDS011;67077;50.298;18.996;2023-12-14T05:09:47;65.60;;;25.80;;
77880;SDS011;67077;50.298;18.996;2023-12-14T05:12:15;71.20;;;26.00;;
77880;SDS011;67077;50.298;18.996;2023-12-14T05:14:43;67.70;;;24.90;;
77880;SDS011;67077;50.298;18.996;2023-12-14T05:17:10;67.20;;;25.60;;
77880;SDS011;67077;50.298;18.996;2023-12-14T05:19:38;73.70;;;26.00;;
77880;SDS011;67077;50.298;18.996;2023-12-14T05:22:06;60.70;;;25.10;;
77880;SDS011;67077;50.298;18.996;2023-12-14T05:24:34;67.00;;;27.00;;
77880;SDS011;67077;50.298;18.996;2023-12-14T05:27:02;69.30;;;27.10;;
77880;SDS011;67077;50.298;18.996;2023-12-14T05:29:29;66.80;;;26.50;;
77880;SDS011;67077;50.298;18.996;2023-12-14T05:31:58;71.20;;;26.80;;
77880;SDS011;67077;50.298;18.996;2023-12-14T05:34:26;70.40;;;26.00;;
77880;SDS011;67077;50.298;18.996;2023-12-14T05:36:54;66.40;;;26.90;;
77880;SDS011;67077;50.298;18.996;2023-12-14T05:39:22;72.60;;;27.10;;
77880;SDS011;67077;50.298;18.996;2023-12-14T05:41:50;68.50;;;26.40;;
77880;SDS011;67077;50.298;18.996;2023-12-14T05:44:18;74.50;;;26.80;;
77880;SDS011;67077;50.298;18.996;2023-12-14T05:46:45;67.50;;;26.30;;
77880;SDS011;67077;50.298;18.996;2023-12-14T05:49:13;68.50;;;26.10;;
77880;SDS011;67077;50.298;18.996;2023-12-14T05:51:41;68.70;;;26.20;;
77880;SDS011;67077;50.298;18.996;2023-12-14T05:54:09;63.60;;;25.10;;
77880;SDS011;67077;50.298;18.996;2023-12-14T05:56:36;73.90;;;26.40;;
77880;SDS011;67077;50.298;18.996;2023-12-14T05:59:04;74.60;;;27.40;;
77880;SDS011;67077;50.298;18.996;2023-12-14T06:01:32;68.40;;;25.80;;
77880;SDS011;67077;50.298;18.996;2023-12-14T06:04:00;66.30;;;26.40;;
77880;SDS011;67077;50.298;18.996;2023-12-14T06:06:28;68.50;;;26.00;;
77880;SDS011;67077;50.298;18.996;2023-12-14T06:08:55;64.00;;;25.50;;
77880;SDS011;67077;50.298;18.996;2023-12-14T06:11:23;68.40;;;27.70;;
77880;SDS011;67077;50.298;18.996;2023-12-14T06:13:51;69.20;;;26.50;;
77880;SDS011;67077;50.298;18.996;2023-12-14T06:16:19;68.90;;;26.70;;
77880;SDS011;67077;50.298;18.996;2023-12-14T06:18:47;66.70;;;26.20;;
77880;SDS011;67077;50.298;18.996;2023-12-14T06:21:15;66.60;;;25.90;;
77880;SDS011;67077;50.298;18.996;2023-12-14T06:23:42;71.10;;;27.10;;
77880;SDS011;67077;50.298;18.996;2023-12-14T06:26:10;76.70;;;27.80;;
77880;SDS011;67077;50.298;18.996;2023-12-14T06:28:38;67.60;;;25.00;;
77880;SDS011;67077;50.298;18.996;2023-12-14T06:31:06;78.50;;;28.00;;
77880;SDS011;67077;50.298;18.996;2023-12-14T06:33:40;66.00;;;26.10;;
77880;SDS011;67077;50.298;18.996;2023-12-14T06:36:08;63.90;;;25.30;;
77880;SDS011;67077;50.298;18.996;2023-12-14T06:38:39;67.10;;;25.90;;
77880;SDS011;67077;50.298;18.996;2023-12-14T06:41:08;69.10;;;28.00;;
77880;SDS011;67077;50.298;18.996;2023-12-14T06:43:36;69.10;;;27.30;;
77880;SDS011;67077;50.298;18.996;2023-12-14T06:46:04;70.10;;;26.40;;
77880;SDS011;67077;50.298;18.996;2023-12-14T06:48:32;72.20;;;26.40;;
77880;SDS011;67077;50.298;18.996;2023-12-14T06:50:59;70.90;;;26.60;;
77880;SDS011;67077;50.298;18.996;2023-12-14T06:53:27;63.80;;;25.40;;
77880;SDS011;67077;50.298;18.996;2023-12-14T06:55:55;65.90;;;26.90;;
77880;SDS011;67077;50.298;18.996;2023-12-14T06:58:23;75.60;;;26.80;;
77880;SDS011;67077;50.298;18.996;2023-12-14T07:00:50;69.10;;;24.90;;
77880;SDS011;67077;50.298;18.996;2023-12-14T07:03:18;69.60;;;25.30;;
77880;SDS011;67077;50.298;18.996;2023-12-14T07:05:46;65.80;;;25.30;;
77880;SDS011;67077;50.298;18.996;2023-12-14T07:08:14;64.40;;;24.80;;
77880;SDS011;67077;50.298;18.996;2023-12-14T07:10:42;67.70;;;26.10;;
77880;SDS011;67077;50.298;18.996;2023-12-14T07:13:10;71.20;;;26.30;;
77880;SDS011;67077;50.298;18.996;2023-12-14T07:15:38;81.50;;;26.70;;
77880;SDS011;67077;50.298;18.996;2023-12-14T07:18:06;70.90;;;26.30;;
77880;SDS011;67077;50.298;18.996;2023-12-14T07:20:34;77.30;;;26.30;;
77880;SDS011;67077;50.298;18.996;2023-12-14T07:23:01;71.00;;;26.70;;
77880;SDS011;67077;50.298;18.996;2023-12-14T07:25:29;79.50;;;28.10;;
77880;SDS011;67077;50.298;18.996;2023-12-14T07:27:57;69.70;;;25.40;;
77880;SDS011;67077;50.298;18.996;2023-12-14T07:30:25;72.10;;;27.60;;
77880;SDS011;67077;50.298;18.996;2023-12-14T07:32:53;80.00;;;29.10;;
77880;SDS011;67077;50.298;18.996;2023-12-14T07:35:20;79.20;;;29.50;;
77880;SDS011;67077;50.298;18.996;2023-12-14T07:37:48;69.40;;;26.90;;
77880;SDS011;67077;50.298;18.996;2023-12-14T07:40:16;70.30;;;27.20;;
77880;SDS011;67077;50.298;18.996;2023-12-14T07:42:44;69.30;;;27.40;;
77880;SDS011;67077;50.298;18.996;2023-12-14T07:45:12;73.50;;;28.00;;
77880;SDS011;67077;50.298;18.996;2023-12-14T07:47:40;79.70;;;27.80;;
77880;SDS011;67077;50.298;18.996;2023-12-14T07:50:09;78.10;;;27.40;;
77880;SDS011;67077;50.298;18.996;2023-12-14T07:52:37;68.10;;;26.10;;
77880;SDS011;67077;50.298;18.996;2023-12-14T07:55:05;75.10;;;28.50;;
77880;SDS011;67077;50.298;18.996;2023-12-14T07:57:33;59.50;;;24.40;;
77880;SDS011;67077;50.298;18.996;2023-12-14T08:00:01;65.00;;;25.30;;
77880;SDS011;67077;50.298;18.996;2023-12-14T08:02:31;79.60;;;24.60;;
77880;SDS011;67077;50.298;18.996;2023-12-14T08:04:59;64.30;;;24.20;;
77880;SDS011;67077;50.298;18.996;2023-12-14T08:07:27;64.20;;;24.50;;
77880;SDS011;67077;50.298;18.996;2023-12-14T08:09:56;64.50;;;23.50;;
77880;SDS011;67077;50.298;18.996;2023-12-14T08:12:24;58.60;;;24.60;;
77880;SDS011;67077;50.298;18.996;2023-12-14T08:14:53;64.60;;;22.50;;
77880;SDS011;67077;50.298;18.996;2023-12-14T08:17:21;65.80;;;24.90;;
77880;SDS011;67077;50.298;18.996;2023-12-14T08:19:49;75.90;;;25.00;;
77880;SDS011;67077;50.298;18.996;2023-12-14T08:22:17;74.50;;;24.70;;
77880;SDS011;67077;50.298;18.996;2023-12-14T08:24:45;57.70;;;24.10;;
77880;SDS011;67077;50.298;18.996;2023-12-14T08:27:13;63.70;;;23.80;;
77880;SDS011;67077;50.298;18.996;2023-12-14T08:29:40;53.50;;;22.30;;
77880;SDS011;67077;50.298;18.996;2023-12-14T08:32:09;58.00;;;23.10;;
77880;SDS011;67077;50.298;18.996;2023-12-14T08:34:37;53.90;;;22.20;;
77880;SDS011;67077;50.298;18.996;2023-12-14T08:37:05;55.10;;;23.30;;
77880;SDS011;67077;50.298;18.996;2023-12-14T08:39:33;55.70;;;22.70;;
77880;SDS011;67077;50.298;18.996;2023-12-14T08:42:00;60.70;;;24.00;;
77880;SDS011;67077;50.298;18.996;2023-12-14T08:44:28;59.20;;;24.50;;
77880;SDS011;67077;50.298;18.996;2023-12-14T08:46:56;61.70;;;24.40;;
77880;SDS011;67077;50.298;18.996;2023-12-14T08:49:24;54.90;;;23.20;;
77880;SDS011;67077;50.298;18.996;2023-12-14T08:51:51;56.70;;;23.70;;
77880;SDS011;67077;50.298;18.996;2023-12-14T08:54:20;54.50;;;22.50;;
77880;SDS011;67077;50.298;18.996;2023-12-14T08:56:48;54.60;;;23.70;;
77880;SDS011;67077;50.298;18.996;2023-12-14T08:59:15;51.60;;;22.00;;
77880;SDS011;67077;50.298;18.996;2023-12-14T09:01:43;54.90;;;23.50;;
77880;SDS011;67077;50.298;18.996;2023-12-14T09:04:11;49.70;;;21.20;;
77880;SDS011;67077;50.298;18.996;2023-12-14T09:06:39;44.60;;;20.20;;
77880;SDS011;67077;50.298;18.996;2023-12-14T09:09:12;45.70;;;20.40;;
77880;SDS011;67077;50.298;18.996;2023-12-14T09:11:40;50.40;;;22.50;;
77880;SDS011;67077;50.298;18.996;2023-12-14T09:14:11;46.80;;;21.60;;
77880;SDS011;67077;50.298;18.996;2023-12-14T09:16:39;51.30;;;22.30;;
77880;SDS011;67077;50.298;18.996;2023-12-14T09:19:06;51.10;;;22.60;;
77880;SDS011;67077;50.298;18.996;2023-12-14T09:21:34;52.00;;;21.90;;
77880;SDS011;67077;50.298;18.996;2023-12-14T09:24:02;50.80;;;23.30;;
77880;SDS011;67077;50.298;18.996;2023-12-14T09:26:30;50.30;;;22.20;;
77880;SDS011;67077;50.298;18.996;2023-12-14T09:28:58;48.50;;;22.20;;
77880;SDS011;67077;50.298;18.996;2023-12-14T09:31:26;44.90;;;20.70;;
77880;SDS011;67077;50.298;18.996;2023-12-14T09:33:53;46.70;;;21.70;;
77880;SDS011;67077;50.298;18.996;2023-12-14T09:36:21;51.20;;;21.70;;
77880;SDS011;67077;50.298;18.996;2023-12-14T09:38:49;46.10;;;21.30;;
77880;SDS011;67077;50.298;18.996;2023-12-14T09:41:17;46.50;;;21.30;;
77880;SDS011;67077;50.298;18.996;2023-12-14T09:43:45;45.30;;;21.30;;
77880;SDS011;67077;50.298;18.996;2023-12-14T09:46:13;47.20;;;21.80;;
77880;SDS011;67077;50.298;18.996;2023-12-14T09:48:47;46.70;;;22.40;;
77880;SDS011;67077;50.298;18.996;2023-12-14T09:51:18;44.40;;;21.60;;
77880;SDS011;67077;50.298;18.996;2023-12-14T09:53:46;48.60;;;22.40;;
77880;SDS011;67077;50.298;18.996;2023-12-14T09:56:13;54.70;;;25.60;;
77880;SDS011;67077;50.298;18.996;2023-12-14T09:58:41;51.50;;;23.80;;
77880;SDS011;67077;50.298;18.996;2023-12-14T10:01:22;50.00;;;23.70;;
77880;SDS011;67077;50.298;18.996;2023-12-14T10:06:39;51.20;;;24.80;;
77880;SDS011;67077;50.298;18.996;2023-12-14T10:09:08;54.60;;;24.70;;
77880;SDS011;67077;50.298;18.996;2023-12-14T10:11:41;51.60;;;23.90;;
77880;SDS011;67077;50.298;18.996;2023-12-14T10:14:23;52.20;;;23.10;;
77880;SDS011;67077;50.298;18.996;2023-12-14T10:16:53;58.20;;;24.90;;
77880;SDS011;67077;50.298;18.996;2023-12-14T10:19:21;57.20;;;25.30;;
77880;SDS011;67077;50.298;18.996;2023-12-14T10:21:49;54.30;;;24.90;;
77880;SDS011;67077;50.298;18.996;2023-12-14T10:24:18;48.90;;;23.50;;
77880;SDS011;67077;50.298;18.996;2023-12-14T10:26:46;53.50;;;25.00;;
77880;SDS011;67077;50.298;18.996;2023-12-14T10:29:15;52.90;;;23.90;;
77880;SDS011;67077;50.298;18.996;2023-12-14T10:31:43;54.40;;;23.90;;
77880;SDS011;67077;50.298;18.996;2023-12-14T10:34:11;58.90;;;26.00;;
77880;SDS011;67077;50.298;18.996;2023-12-14T10:36:40;54.70;;;25.00;;
77880;SDS011;67077;50.298;18.996;2023-12-14T10:39:14;58.90;;;25.00;;
77880;SDS011;67077;50.298;18.996;2023-12-14T10:41:46;70.30;;;28.20;;
77880;SDS011;67077;50.298;18.996;2023-12-14T10:44:17;63.20;;;28.20;;
77880;SDS011;67077;50.298;18.996;2023-12-14T10:46:47;71.90;;;31.30;;
77880;SDS011;67077;50.298;18.996;2023-12-14T10:49:15;69.60;;;30.30;;
77880;SDS011;67077;50.298;18.996;2023-12-14T10:51:43;72.50;;;30.00;;
77880;SDS011;67077;50.298;18.996;2023-12-14T10:54:12;64.80;;;27.70;;
77880;SDS011;67077;50.298;18.996;2023-12-14T10:56:39;61.40;;;27.30;;
77880;SDS011;67077;50.298;18.996;2023-12-14T10:59:07;60.40;;;27.60;;
77880;SDS011;67077;50.298;18.996;2023-12-14T11:01:35;59.90;;;27.10;;
77880;SDS011;67077;50.298;18.996;2023-12-14T11:04:06;61.50;;;26.20;;
77880;SDS011;67077;50.298;18.996;2023-12-14T11:06:40;63.50;;;27.60;;
77880;SDS011;67077;50.298;18.996;2023-12-14T11:09:09;62.80;;;27.40;;
77880;SDS011;67077;50.298;18.996;2023-12-14T11:14:13;61.10;;;25.90;;
77880;SDS011;67077;50.298;18.996;2023-12-14T11:16:41;50.20;;;23.80;;
77880;SDS011;67077;50.298;18.996;2023-12-14T11:24:23;55.30;;;25.50;;
77880;SDS011;67077;50.298;18.996;2023-12-14T11:26:51;55.70;;;25.10;;
77880;SDS011;67077;50.298;18.996;2023-12-14T11:29:19;53.20;;;23.70;;
77880;SDS011;67077;50.298;18.996;2023-12-14T11:31:49;52.70;;;22.90;;
77880;SDS011;67077;50.298;18.996;2023-12-14T11:34:17;47.70;;;22.10;;
77880;SDS011;67077;50.298;18.996;2023-12-14T11:36:48;48.90;;;23.50;;
77880;SDS011;67077;50.298;18.996;2023-12-14T11:39:16;51.30;;;23.00;;
77880;SDS011;67077;50.298;18.996;2023-12-14T11:41:58;47.20;;;22.00;;
77880;SDS011;67077;50.298;18.996;2023-12-14T11:44:27;51.00;;;22.60;;
77880;SDS011;67077;50.298;18.996;2023-12-14T11:46:55;51.50;;;22.70;;
77880;SDS011;67077;50.298;18.996;2023-12-14T11:49:26;48.70;;;22.00;;
77880;SDS011;67077;50.298;18.996;2023-12-14T11:51:55;44.40;;;21.70;;
77880;SDS011;67077;50.298;18.996;2023-12-14T11:54:23;51.40;;;23.20;;
77880;SDS011;67077;50.298;18.996;2023-12-14T11:56:51;55.00;;;25.30;;
77880;SDS011;67077;50.298;18.996;2023-12-14T11:59:18;48.40;;;22.90;;
77880;SDS011;67077;50.298;18.996;2023-12-14T12:02:00;47.00;;;22.60;;
77880;SDS011;67077;50.298;18.996;2023-12-14T12:04:29;45.00;;;21.70;;
77880;SDS011;67077;50.298;18.996;2023-12-14T12:09:40;38.70;;;18.90;;
77880;SDS011;67077;50.298;18.996;2023-12-14T12:12:09;43.50;;;20.20;;
77880;SDS011;67077;50.298;18.996;2023-12-14T12:14:41;37.50;;;18.90;;
77880;SDS011;67077;50.298;18.996;2023-12-14T12:19:38;43.50;;;22.10;;
77880;SDS011;67077;50.298;18.996;2023-12-14T12:22:06;41.50;;;21.50;;
77880;SDS011;67077;50.298;18.996;2023-12-14T12:24:34;45.40;;;20.50;;
77880;SDS011;67077;50.298;18.996;2023-12-14T12:27:02;42.10;;;21.60;;
77880;SDS011;67077;50.298;18.996;2023-12-14T12:29:31;46.20;;;22.10;;
77880;SDS011;67077;50.298;18.996;2023-12-14T12:31:59;47.50;;;22.90;;
77880;SDS011;67077;50.298;18.996;2023-12-14T12:34:27;48.80;;;23.00;;
77880;SDS011;67077;50.298;18.996;2023-12-14T12:36:55;45.30;;;21.30;;
77880;SDS011;67077;50.298;18.996;2023-12-14T12:39:25;42.30;;;19.80;;
77880;SDS011;67077;50.298;18.996;2023-12-14T12:41:53;44.50;;;18.90;;
77880;SDS011;67077;50.298;18.996;2023-12-14T12:44:21;34.40;;;17.50;;
77880;SDS011;67077;50.298;18.996;2023-12-14T12:46:49;31.30;;;17.10;;
77880;SDS011;67077;50.298;18.996;2023-12-14T12:49:17;31.60;;;16.60;;
77880;SDS011;67077;50.298;18.996;2023-12-14T12:51:44;35.60;;;19.10;;
77880;SDS011;67077;50.298;18.996;2023-12-14T12:54:13;35.30;;;18.70;;
77880;SDS011;67077;50.298;18.996;2023-12-14T12:56:41;36.10;;;19.60;;
77880;SDS011;67077;50.298;18.996;2023-12-14T12:59:10;37.00;;;19.50;;
77880;SDS011;67077;50.298;18.996;2023-12-14T13:01:38;35.50;;;18.50;;
77880;SDS011;67077;50.298;18.996;2023-12-14T13:04:17;29.60;;;16.20;;
77880;SDS011;67077;50.298;18.996;2023-12-14T13:06:48;31.20;;;16.60;;
77880;SDS011;67077;50.298;18.996;2023-12-14T13:09:18;24.90;;;14.50;;
77880;SDS011;67077;50.298;18.996;2023-12-14T13:11:50;31.40;;;16.20;;
77880;SDS011;67077;50.298;18.996;2023-12-14T13:14:18;30.50;;;17.30;;
77880;SDS011;67077;50.298;18.996;2023-12-14T13:16:46;31.50;;;17.70;;
77880;SDS011;67077;50.298;18.996;2023-12-14T13:19:15;34.90;;;19.20;;
77880;SDS011;67077;50.298;18.996;2023-12-14T13:21:43;37.80;;;20.40;;
77880;SDS011;67077;50.298;18.996;2023-12-14T13:24:11;40.40;;;20.30;;
77880;SDS011;67077;50.298;18.996;2023-12-14T13:26:38;38.80;;;20.90;;
77880;SDS011;67077;50.298;18.996;2023-12-14T13:29:06;38.10;;;21.30;;
77880;SDS011;67077;50.298;18.996;2023-12-14T13:31:35;40.60;;;22.20;;
77880;SDS011;67077;50.298;18.996;2023-12-14T13:34:02;40.10;;;21.10;;
77880;SDS011;67077;50.298;18.996;2023-12-14T13:36:31;41.80;;;22.00;;
77880;SDS011;67077;50.298;18.996;2023-12-14T13:38:58;39.40;;;20.50;;
77880;SDS011;67077;50.298;18.996;2023-12-14T13:41:27;40.00;;;20.40;;
77880;SDS011;67077;50.298;18.996;2023-12-14T13:43:55;36.40;;;19.80;;
77880;SDS011;67077;50.298;18.996;2023-12-14T13:46:23;45.40;;;22.60;;
77880;SDS011;67077;50.298;18.996;2023-12-14T13:48:51;44.90;;;22.90;;
77880;SDS011;67077;50.298;18.996;2023-12-14T13:51:20;47.20;;;23.60;;
77880;SDS011;67077;50.298;18.996;2023-12-14T13:53:48;47.20;;;22.50;;
77880;SDS011;67077;50.298;18.996;2023-12-14T13:56:16;46.00;;;22.50;;
77880;SDS011;67077;50.298;18.996;2023-12-14T13:58:44;44.00;;;20.40;;
77880;SDS011;67077;50.298;18.996;2023-12-14T14:01:11;47.50;;;24.00;;
77880;SDS011;67077;50.298;18.996;2023-12-14T14:03:40;53.70;;;24.40;;
77880;SDS011;67077;50.298;18.996;2023-12-14T14:06:09;51.00;;;23.70;;
77880;SDS011;67077;50.298;18.996;2023-12-14T14:08:37;46.40;;;23.80;;
77880;SDS011;67077;50.298;18.996;2023-12-14T14:11:05;46.10;;;23.00;;
77880;SDS011;67077;50.298;18.996;2023-12-14T14:13:33;47.40;;;25.20;;
77880;SDS011;67077;50.298;18.996;2023-12-14T14:16:01;44.50;;;24.70;;
77880;SDS011;67077;50.298;18.996;2023-12-14T14:18:29;50.40;;;26.00;;
77880;SDS011;67077;50.298;18.996;2023-12-14T14:20:57;56.40;;;27.10;;
77880;SDS011;67077;50.298;18.996;2023-12-14T14:23:26;54.70;;;27.40;;
77880;SDS011;67077;50.298;18.996;2023-12-14T14:25:54;51.60;;;25.70;;
77880;SDS011;67077;50.298;18.996;2023-12-14T14:28:22;58.10;;;28.20;;
77880;SDS011;67077;50.298;18.996;2023-12-14T14:30:50;49.40;;;25.20;;